Argo — SVA2141 — position and weather

sailwx.info

Track history (hours):
 
Tides and Currents Weather Stations Pressure Air Temp Water Temp Dewpoint Dewpoint Depression Visibility Wind Speed Wind Dir Waves Ship Positions

Argo

Last reported at 2018-Jun-19 06:34 UTC. Time now 2018-Jun-19 20:04 UTC.
Position N 37°55' E 023°01'.

Length 24 m; draft 2 m.

Type: Passenger vessel. MMSI: 239383400.

Date/timePositionNaut miles runAvg speedWind from/ knotsBaromVisibWave heightAir tempDewpointWater temp
2018-Jun-19 06:34N 37°55' E 023°01'0 0.1
2018-Jun-19 06:30N 37°55' E 023°01'0 0.3
2018-Jun-19 06:01N 37°55' E 023°00'0 0.3
2018-Jun-19 05:31N 37°55' E 023°01'0 0.0
2018-Jun-18 08:40N 37°55' E 023°01'0 0.8
2018-Jun-18 08:30N 37°55' E 023°00'3 5.7
2018-Jun-18 08:00N 37°57' E 022°58'3 5.6
2018-Jun-18 07:30N 37°55' E 023°00'0 0.1
2018-Jun-18 07:00N 37°55' E 023°00'3 6.6
2018-Jun-18 06:30N 37°57' E 022°57'3 6.6
2018-Jun-18 06:00N 37°55' E 023°01'0 0.0
2018-Jun-17 13:06N 37°55' E 023°00'0 0.0
2018-Jun-16 05:24N 37°55' E 023°01'0 0.0
2018-Jun-15 09:34N 37°55' E 023°01'0 0.3
2018-Jun-15 09:30N 37°55' E 023°01'3 4.9
2018-Jun-15 08:56N 37°57' E 022°58'2 5.7
2018-Jun-15 08:30N 37°55' E 023°00'0 0.3
2018-Jun-15 08:00N 37°55' E 023°00'0 0.0
2018-Jun-15 07:10N 37°55' E 023°00'0 2.5
2018-Jun-15 07:00N 37°55' E 023°00'0 0.0
2018-Jun-15 06:30N 37°55' E 023°00'0 0.0
2018-Jun-15 06:00N 37°55' E 023°00'0 0.3
2018-Jun-15 05:30N 37°55' E 023°01'0 0.0
2018-Jun-14 08:45N 37°55' E 023°01'0 0.6
2018-Jun-14 08:30N 37°55' E 023°00'0 0.4
2018-Jun-14 07:40N 37°55' E 023°00'1 5.4
2018-Jun-14 07:31N 37°55' E 023°01'0 1.0
2018-Jun-14 07:01N 37°55' E 023°00'0 0.1
2018-Jun-14 05:09N 37°55' E 023°01'0 0.0
2018-Jun-14 05:00N 37°55' E 023°01'0 0.0
2018-Jun-13 13:45N 37°55' E 023°01'0 0.5
2018-Jun-13 13:30N 37°55' E 023°00'3 5.4
2018-Jun-13 13:00N 37°57' E 022°58'3 5.4
2018-Jun-13 12:30N 37°55' E 023°00'0 0.1
2018-Jun-13 11:06N 37°55' E 023°01'0 0.0
2018-Jun-13 09:13N 37°55' E 023°01'0 0.6
2018-Jun-13 09:00N 37°55' E 023°00'3 3.9
2018-Jun-13 08:19N 37°57' E 022°58'2 4.7
2018-Jun-13 07:51N 37°55' E 023°00'0 1.2
2018-Jun-13 07:30N 37°55' E 023°00'0 0.0
2018-Jun-13 07:00N 37°55' E 023°00'0 0.3
2018-Jun-13 06:30N 37°55' E 023°01'0 0.0
2018-Jun-13 06:00N 37°55' E 023°01'0 0.0
2018-Jun-13 05:30N 37°55' E 023°01'0 0.0
2018-Jun-12 10:46N 37°55' E 023°01'0 0.5
2018-Jun-12 10:30N 37°55' E 023°00'3 5.6
2018-Jun-12 10:00N 37°57' E 022°58'3 5.3
2018-Jun-12 09:30N 37°55' E 023°00'1 1.8
2018-Jun-12 09:00N 37°54' E 023°01'1 0.0
2018-Jun-11 12:01N 37°55' E 023°01'0 0.0
2018-Jun-11 12:01N 37°55' E 023°01'0 0.0
2018-Jun-11 08:57N 37°55' E 023°01'3 3.7
2018-Jun-11 08:15N 37°57' E 022°58'2 4.5
2018-Jun-11 07:47N 37°55' E 023°00'0 1.5
2018-Jun-11 07:30N 37°55' E 023°00'0 0.0
2018-Jun-10 12:29N 37°55' E 023°01'0 0.0
2018-Jun-10 11:03N 37°55' E 023°01'0 0.1
2018-Jun-10 11:00N 37°55' E 023°01'3 3.8
2018-Jun-10 10:18N 37°57' E 022°58'2 4.0
2018-Jun-10 09:45N 37°55' E 023°00'1 3.7
2018-Jun-10 09:30N 37°55' E 023°01'1 1.0
2018-Jun-10 09:00N 37°55' E 023°00'0 0.0
2018-Jun-10 05:35N 37°55' E 023°01'0 0.0
2018-Jun-09 17:48N 37°55' E 023°01'0 0.4
2018-Jun-09 17:30N 37°55' E 023°00'3 6.1
2018-Jun-09 17:01N 37°57' E 022°58'3 6.0
2018-Jun-09 16:30N 37°55' E 023°00'  
Track history (hours):
 
Tides and Currents Weather Stations Pressure Air Temp Water Temp Dewpoint Dewpoint Depression Visibility Wind Speed Wind Dir Waves Ship Positions

Argo

Last reported at 2018-Jun-19 06:34 UTC. Time now 2018-Jun-19 20:04 UTC.
Position N 37°55' E 023°01'.

Length 24 m; draft 2 m.

Type: Passenger vessel. MMSI: 239383400.

Date/timePositionNaut miles runAvg speedWind from/ knotsBaromVisibWave heightAir tempDewpointWater temp
2018-Jun-19 06:34N 37°55' E 023°01'0 0.1
2018-Jun-19 06:30N 37°55' E 023°01'0 0.3
2018-Jun-19 06:01N 37°55' E 023°00'0 0.3
2018-Jun-19 05:31N 37°55' E 023°01'0 0.0
2018-Jun-18 08:40N 37°55' E 023°01'0 0.8
2018-Jun-18 08:30N 37°55' E 023°00'3 5.7
2018-Jun-18 08:00N 37°57' E 022°58'3 5.6
2018-Jun-18 07:30N 37°55' E 023°00'0 0.1
2018-Jun-18 07:00N 37°55' E 023°00'3 6.6
2018-Jun-18 06:30N 37°57' E 022°57'3 6.6
2018-Jun-18 06:00N 37°55' E 023°01'0 0.0
2018-Jun-17 13:06N 37°55' E 023°00'0 0.0
2018-Jun-16 05:24N 37°55' E 023°01'0 0.0
2018-Jun-15 09:34N 37°55' E 023°01'0 0.3
2018-Jun-15 09:30N 37°55' E 023°01'3 4.9
2018-Jun-15 08:56N 37°57' E 022°58'2 5.7
2018-Jun-15 08:30N 37°55' E 023°00'0 0.3
2018-Jun-15 08:00N 37°55' E 023°00'0 0.0
2018-Jun-15 07:10N 37°55' E 023°00'0 2.5
2018-Jun-15 07:00N 37°55' E 023°00'0 0.0
2018-Jun-15 06:30N 37°55' E 023°00'0 0.0
2018-Jun-15 06:00N 37°55' E 023°00'0 0.3
2018-Jun-15 05:30N 37°55' E 023°01'0 0.0
2018-Jun-14 08:45N 37°55' E 023°01'0 0.6
2018-Jun-14 08:30N 37°55' E 023°00'0 0.4
2018-Jun-14 07:40N 37°55' E 023°00'1 5.4
2018-Jun-14 07:31N 37°55' E 023°01'0 1.0
2018-Jun-14 07:01N 37°55' E 023°00'0 0.1
2018-Jun-14 05:09N 37°55' E 023°01'0 0.0
2018-Jun-14 05:00N 37°55' E 023°01'0 0.0
2018-Jun-13 13:45N 37°55' E 023°01'0 0.5
2018-Jun-13 13:30N 37°55' E 023°00'3 5.4
2018-Jun-13 13:00N 37°57' E 022°58'3 5.4
2018-Jun-13 12:30N 37°55' E 023°00'0 0.1
2018-Jun-13 11:06N 37°55' E 023°01'0 0.0
2018-Jun-13 09:13N 37°55' E 023°01'0 0.6
2018-Jun-13 09:00N 37°55' E 023°00'3 3.9
2018-Jun-13 08:19N 37°57' E 022°58'2 4.7
2018-Jun-13 07:51N 37°55' E 023°00'0 1.2
2018-Jun-13 07:30N 37°55' E 023°00'0 0.0
2018-Jun-13 07:00N 37°55' E 023°00'0 0.3
2018-Jun-13 06:30N 37°55' E 023°01'0 0.0
2018-Jun-13 06:00N 37°55' E 023°01'0 0.0
2018-Jun-13 05:30N 37°55' E 023°01'0 0.0
2018-Jun-12 10:46N 37°55' E 023°01'0 0.5
2018-Jun-12 10:30N 37°55' E 023°00'3 5.6
2018-Jun-12 10:00N 37°57' E 022°58'3 5.3
2018-Jun-12 09:30N 37°55' E 023°00'1 1.8
2018-Jun-12 09:00N 37°54' E 023°01'1 0.0
2018-Jun-11 12:01N 37°55' E 023°01'0 0.0
2018-Jun-11 12:01N 37°55' E 023°01'0 0.0
2018-Jun-11 08:57N 37°55' E 023°01'3 3.7
2018-Jun-11 08:15N 37°57' E 022°58'2 4.5
2018-Jun-11 07:47N 37°55' E 023°00'0 1.5
2018-Jun-11 07:30N 37°55' E 023°00'0 0.0
2018-Jun-10 12:29N 37°55' E 023°01'0 0.0
2018-Jun-10 11:03N 37°55' E 023°01'0 0.1
2018-Jun-10 11:00N 37°55' E 023°01'3 3.8
2018-Jun-10 10:18N 37°57' E 022°58'2 4.0
2018-Jun-10 09:45N 37°55' E 023°00'1 3.7
2018-Jun-10 09:30N 37°55' E 023°01'1 1.0
2018-Jun-10 09:00N 37°55' E 023°00'0 0.0
2018-Jun-10 05:35N 37°55' E 023°01'0 0.0
2018-Jun-09 17:48N 37°55' E 023°01'0 0.4
2018-Jun-09 17:30N 37°55' E 023°00'3 6.1
2018-Jun-09 17:01N 37°57' E 022°58'3 6.0
2018-Jun-09 16:30N 37°55' E 023°00'  

Dump ship's entire track history